sensor_id;sensor_type;location;lat;lon;timestamp;P1;durP1;ratioP1;P2;durP2;ratioP2
76157;SDS011;64907;51.574;6.502;2023-05-07T00:02:16;14.98;;;13.57;;
76157;SDS011;64907;51.574;6.502;2023-05-07T00:04:41;14.05;;;12.65;;
76157;SDS011;64907;51.574;6.502;2023-05-07T00:07:07;14.37;;;12.80;;
76157;SDS011;64907;51.574;6.502;2023-05-07T00:09:32;16.23;;;14.73;;
76157;SDS011;64907;51.574;6.502;2023-05-07T00:11:57;14.93;;;13.55;;
76157;SDS011;64907;51.574;6.502;2023-05-07T00:14:22;18.63;;;16.87;;
76157;SDS011;64907;51.574;6.502;2023-05-07T00:16:49;16.60;;;15.20;;
76157;SDS011;64907;51.574;6.502;2023-05-07T00:19:15;17.83;;;16.15;;
76157;SDS011;64907;51.574;6.502;2023-05-07T00:21:40;16.73;;;15.13;;
76157;SDS011;64907;51.574;6.502;2023-05-07T00:24:05;19.08;;;17.45;;
76157;SDS011;64907;51.574;6.502;2023-05-07T00:26:30;17.50;;;15.70;;
76157;SDS011;64907;51.574;6.502;2023-05-07T00:28:55;17.90;;;16.17;;
76157;SDS011;64907;51.574;6.502;2023-05-07T00:31:21;18.00;;;16.40;;
76157;SDS011;64907;51.574;6.502;2023-05-07T00:33:46;20.58;;;18.83;;
76157;SDS011;64907;51.574;6.502;2023-05-07T00:36:11;21.15;;;18.90;;
76157;SDS011;64907;51.574;6.502;2023-05-07T00:38:36;21.60;;;19.55;;
76157;SDS011;64907;51.574;6.502;2023-05-07T00:41:02;19.77;;;18.08;;
76157;SDS011;64907;51.574;6.502;2023-05-07T00:43:27;21.13;;;18.92;;
76157;SDS011;64907;51.574;6.502;2023-05-07T00:45:52;19.13;;;17.33;;
76157;SDS011;64907;51.574;6.502;2023-05-07T00:48:17;19.27;;;17.58;;
76157;SDS011;64907;51.574;6.502;2023-05-07T00:50:43;19.10;;;17.17;;
76157;SDS011;64907;51.574;6.502;2023-05-07T00:53:09;20.45;;;18.42;;
76157;SDS011;64907;51.574;6.502;2023-05-07T00:55:35;21.83;;;19.55;;
76157;SDS011;64907;51.574;6.502;2023-05-07T00:58:00;20.90;;;18.92;;
76157;SDS011;64907;51.574;6.502;2023-05-07T01:00:25;20.75;;;18.85;;
76157;SDS011;64907;51.574;6.502;2023-05-07T01:02:50;20.35;;;18.42;;
76157;SDS011;64907;51.574;6.502;2023-05-07T01:05:17;20.48;;;18.48;;
76157;SDS011;64907;51.574;6.502;2023-05-07T01:07:42;17.77;;;16.02;;
76157;SDS011;64907;51.574;6.502;2023-05-07T01:10:08;16.38;;;14.90;;
76157;SDS011;64907;51.574;6.502;2023-05-07T01:12:35;21.15;;;19.05;;
76157;SDS011;64907;51.574;6.502;2023-05-07T01:15:00;19.92;;;17.92;;
76157;SDS011;64907;51.574;6.502;2023-05-07T01:17:26;21.83;;;19.60;;
76157;SDS011;64907;51.574;6.502;2023-05-07T01:19:51;25.67;;;20.45;;
76157;SDS011;64907;51.574;6.502;2023-05-07T01:22:22;24.73;;;22.40;;
76157;SDS011;64907;51.574;6.502;2023-05-07T01:24:48;25.83;;;23.23;;
76157;SDS011;64907;51.574;6.502;2023-05-07T01:27:14;24.73;;;22.23;;
76157;SDS011;64907;51.574;6.502;2023-05-07T01:29:39;27.20;;;22.65;;
76157;SDS011;64907;51.574;6.502;2023-05-07T01:32:05;25.70;;;23.00;;
76157;SDS011;64907;51.574;6.502;2023-05-07T01:34:31;25.10;;;22.55;;
76157;SDS011;64907;51.574;6.502;2023-05-07T01:36:57;25.50;;;22.90;;
76157;SDS011;64907;51.574;6.502;2023-05-07T01:39:24;25.98;;;23.48;;
76157;SDS011;64907;51.574;6.502;2023-05-07T01:41:50;26.45;;;23.85;;
76157;SDS011;64907;51.574;6.502;2023-05-07T01:44:15;27.77;;;25.15;;
76157;SDS011;64907;51.574;6.502;2023-05-07T01:46:41;26.35;;;23.55;;
76157;SDS011;64907;51.574;6.502;2023-05-07T01:49:06;26.95;;;24.10;;
76157;SDS011;64907;51.574;6.502;2023-05-07T01:51:32;25.20;;;22.58;;
76157;SDS011;64907;51.574;6.502;2023-05-07T01:53:57;24.90;;;22.35;;
76157;SDS011;64907;51.574;6.502;2023-05-07T01:56:23;25.67;;;23.20;;
76157;SDS011;64907;51.574;6.502;2023-05-07T01:58:50;26.48;;;23.65;;
76157;SDS011;64907;51.574;6.502;2023-05-07T02:01:16;25.30;;;22.77;;
76157;SDS011;64907;51.574;6.502;2023-05-07T02:03:41;27.45;;;24.73;;
76157;SDS011;64907;51.574;6.502;2023-05-07T02:06:06;25.63;;;23.23;;
76157;SDS011;64907;51.574;6.502;2023-05-07T02:08:31;27.38;;;24.65;;
76157;SDS011;64907;51.574;6.502;2023-05-07T02:10:56;28.43;;;24.37;;
76157;SDS011;64907;51.574;6.502;2023-05-07T02:13:22;27.90;;;25.10;;
76157;SDS011;64907;51.574;6.502;2023-05-07T02:15:49;26.40;;;23.70;;
76157;SDS011;64907;51.574;6.502;2023-05-07T02:18:15;29.08;;;26.05;;
76157;SDS011;64907;51.574;6.502;2023-05-07T02:20:41;29.15;;;26.25;;
76157;SDS011;64907;51.574;6.502;2023-05-07T02:23:06;29.43;;;26.43;;
76157;SDS011;64907;51.574;6.502;2023-05-07T02:25:31;31.10;;;27.73;;
76157;SDS011;64907;51.574;6.502;2023-05-07T02:27:56;28.73;;;25.73;;
76157;SDS011;64907;51.574;6.502;2023-05-07T02:30:21;36.23;;;30.07;;
76157;SDS011;64907;51.574;6.502;2023-05-07T02:32:47;31.13;;;27.88;;
76157;SDS011;64907;51.574;6.502;2023-05-07T02:35:12;33.10;;;27.15;;
76157;SDS011;64907;51.574;6.502;2023-05-07T02:37:37;30.03;;;26.93;;
76157;SDS011;64907;51.574;6.502;2023-05-07T02:40:02;32.40;;;29.00;;
76157;SDS011;64907;51.574;6.502;2023-05-07T02:42:29;32.97;;;29.63;;
76157;SDS011;64907;51.574;6.502;2023-05-07T02:44:54;33.67;;;30.23;;
76157;SDS011;64907;51.574;6.502;2023-05-07T02:47:19;34.90;;;31.38;;
76157;SDS011;64907;51.574;6.502;2023-05-07T02:49:44;36.37;;;30.27;;
76157;SDS011;64907;51.574;6.502;2023-05-07T02:52:10;34.07;;;30.63;;
76157;SDS011;64907;51.574;6.502;2023-05-07T02:54:35;27.53;;;24.37;;
76157;SDS011;64907;51.574;6.502;2023-05-07T02:57:00;37.93;;;31.00;;
76157;SDS011;64907;51.574;6.502;2023-05-07T02:59:28;36.35;;;29.33;;
76157;SDS011;64907;51.574;6.502;2023-05-07T03:01:53;35.33;;;31.63;;
76157;SDS011;64907;51.574;6.502;2023-05-07T03:04:18;34.70;;;31.00;;
76157;SDS011;64907;51.574;6.502;2023-05-07T03:06:44;34.53;;;30.50;;
76157;SDS011;64907;51.574;6.502;2023-05-07T03:09:09;35.50;;;31.77;;
76157;SDS011;64907;51.574;6.502;2023-05-07T03:11:34;39.70;;;33.17;;
76157;SDS011;64907;51.574;6.502;2023-05-07T03:14:00;36.13;;;32.17;;
76157;SDS011;64907;51.574;6.502;2023-05-07T03:16:26;35.55;;;31.67;;
76157;SDS011;64907;51.574;6.502;2023-05-07T03:18:51;36.53;;;31.48;;
76157;SDS011;64907;51.574;6.502;2023-05-07T03:21:16;37.23;;;32.80;;
76157;SDS011;64907;51.574;6.502;2023-05-07T03:23:41;41.13;;;34.63;;
76157;SDS011;64907;51.574;6.502;2023-05-07T03:26:07;36.93;;;32.53;;
76157;SDS011;64907;51.574;6.502;2023-05-07T03:28:32;43.65;;;33.38;;
76157;SDS011;64907;51.574;6.502;2023-05-07T03:30:57;35.63;;;31.80;;
76157;SDS011;64907;51.574;6.502;2023-05-07T03:33:22;38.25;;;33.42;;
76157;SDS011;64907;51.574;6.502;2023-05-07T03:35:47;35.67;;;31.70;;
76157;SDS011;64907;51.574;6.502;2023-05-07T03:38:13;41.87;;;37.03;;
76157;SDS011;64907;51.574;6.502;2023-05-07T03:40:38;42.20;;;37.60;;
76157;SDS011;64907;51.574;6.502;2023-05-07T03:43:03;47.67;;;37.43;;
76157;SDS011;64907;51.574;6.502;2023-05-07T03:45:28;39.23;;;34.80;;
76157;SDS011;64907;51.574;6.502;2023-05-07T03:47:53;50.58;;;39.90;;
76157;SDS011;64907;51.574;6.502;2023-05-07T03:50:19;44.93;;;37.07;;
76157;SDS011;64907;51.574;6.502;2023-05-07T03:52:44;46.92;;;38.70;;
76157;SDS011;64907;51.574;6.502;2023-05-07T03:55:10;46.28;;;39.15;;
76157;SDS011;64907;51.574;6.502;2023-05-07T03:57:35;46.17;;;38.80;;
76157;SDS011;64907;51.574;6.502;2023-05-07T04:00:00;46.67;;;39.47;;
76157;SDS011;64907;51.574;6.502;2023-05-07T04:02:25;46.30;;;37.92;;
76157;SDS011;64907;51.574;6.502;2023-05-07T04:04:51;44.27;;;37.17;;
76157;SDS011;64907;51.574;6.502;2023-05-07T04:07:16;46.15;;;38.05;;
76157;SDS011;64907;51.574;6.502;2023-05-07T04:09:42;43.07;;;38.37;;
76157;SDS011;64907;51.574;6.502;2023-05-07T04:12:07;43.00;;;36.55;;
76157;SDS011;64907;51.574;6.502;2023-05-07T04:14:32;43.33;;;37.07;;
76157;SDS011;64907;51.574;6.502;2023-05-07T04:16:58;48.10;;;37.27;;
76157;SDS011;64907;51.574;6.502;2023-05-07T04:19:23;42.60;;;35.70;;
76157;SDS011;64907;51.574;6.502;2023-05-07T04:21:49;54.07;;;39.63;;
76157;SDS011;64907;51.574;6.502;2023-05-07T04:24:14;44.33;;;36.38;;
76157;SDS011;64907;51.574;6.502;2023-05-07T04:26:39;46.03;;;39.60;;
76157;SDS011;64907;51.574;6.502;2023-05-07T04:29:05;43.40;;;36.88;;
76157;SDS011;64907;51.574;6.502;2023-05-07T04:31:30;42.13;;;36.90;;
76157;SDS011;64907;51.574;6.502;2023-05-07T04:33:55;43.88;;;37.88;;
76157;SDS011;64907;51.574;6.502;2023-05-07T04:36:20;41.07;;;36.57;;
76157;SDS011;64907;51.574;6.502;2023-05-07T04:38:46;42.33;;;35.97;;
76157;SDS011;64907;51.574;6.502;2023-05-07T04:41:12;46.57;;;38.80;;
76157;SDS011;64907;51.574;6.502;2023-05-07T04:43:37;47.03;;;37.38;;
76157;SDS011;64907;51.574;6.502;2023-05-07T04:46:02;38.50;;;33.53;;
76157;SDS011;64907;51.574;6.502;2023-05-07T04:48:28;41.42;;;36.75;;
76157;SDS011;64907;51.574;6.502;2023-05-07T04:50:53;46.50;;;37.65;;
76157;SDS011;64907;51.574;6.502;2023-05-07T04:53:19;44.60;;;38.33;;
76157;SDS011;64907;51.574;6.502;2023-05-07T04:55:44;40.88;;;35.75;;
76157;SDS011;64907;51.574;6.502;2023-05-07T04:58:10;43.15;;;37.17;;
76157;SDS011;64907;51.574;6.502;2023-05-07T05:00:35;45.25;;;36.53;;
76157;SDS011;64907;51.574;6.502;2023-05-07T05:03:00;41.90;;;35.03;;
76157;SDS011;64907;51.574;6.502;2023-05-07T05:05:26;45.63;;;38.63;;
76157;SDS011;64907;51.574;6.502;2023-05-07T05:07:51;41.05;;;34.92;;
76157;SDS011;64907;51.574;6.502;2023-05-07T05:10:16;38.30;;;34.30;;
76157;SDS011;64907;51.574;6.502;2023-05-07T05:12:42;42.72;;;34.05;;
76157;SDS011;64907;51.574;6.502;2023-05-07T05:15:07;38.27;;;32.30;;
76157;SDS011;64907;51.574;6.502;2023-05-07T05:17:32;41.03;;;34.97;;
76157;SDS011;64907;51.574;6.502;2023-05-07T05:19:59;41.60;;;34.03;;
76157;SDS011;64907;51.574;6.502;2023-05-07T05:22:25;37.28;;;33.33;;
76157;SDS011;64907;51.574;6.502;2023-05-07T05:24:50;37.10;;;33.28;;
76157;SDS011;64907;51.574;6.502;2023-05-07T05:27:15;36.85;;;33.03;;
76157;SDS011;64907;51.574;6.502;2023-05-07T05:29:41;36.50;;;32.72;;
76157;SDS011;64907;51.574;6.502;2023-05-07T05:32:06;35.40;;;31.70;;
76157;SDS011;64907;51.574;6.502;2023-05-07T05:34:31;33.47;;;30.00;;
76157;SDS011;64907;51.574;6.502;2023-05-07T05:36:58;33.25;;;29.65;;
76157;SDS011;64907;51.574;6.502;2023-05-07T05:39:23;33.13;;;29.83;;
76157;SDS011;64907;51.574;6.502;2023-05-07T05:41:49;30.85;;;27.77;;
76157;SDS011;64907;51.574;6.502;2023-05-07T05:44:14;30.93;;;27.87;;
76157;SDS011;64907;51.574;6.502;2023-05-07T05:46:39;29.02;;;26.17;;
76157;SDS011;64907;51.574;6.502;2023-05-07T05:49:05;30.13;;;27.13;;
76157;SDS011;64907;51.574;6.502;2023-05-07T05:51:30;28.95;;;25.92;;
76157;SDS011;64907;51.574;6.502;2023-05-07T05:53:55;30.70;;;27.48;;
76157;SDS011;64907;51.574;6.502;2023-05-07T05:56:20;26.73;;;23.15;;
76157;SDS011;64907;51.574;6.502;2023-05-07T05:58:46;27.13;;;24.35;;
76157;SDS011;64907;51.574;6.502;2023-05-07T06:01:11;26.95;;;24.40;;
76157;SDS011;64907;51.574;6.502;2023-05-07T06:03:37;26.55;;;23.83;;
76157;SDS011;64907;51.574;6.502;2023-05-07T06:06:02;27.52;;;24.83;;
76157;SDS011;64907;51.574;6.502;2023-05-07T06:08:30;25.05;;;22.75;;
76157;SDS011;64907;51.574;6.502;2023-05-07T06:10:55;26.60;;;23.77;;
76157;SDS011;64907;51.574;6.502;2023-05-07T06:13:21;24.10;;;21.80;;
76157;SDS011;64907;51.574;6.502;2023-05-07T06:15:46;24.60;;;22.13;;
76157;SDS011;64907;51.574;6.502;2023-05-07T06:18:11;24.58;;;22.08;;
76157;SDS011;64907;51.574;6.502;2023-05-07T06:20:36;25.00;;;22.33;;
76157;SDS011;64907;51.574;6.502;2023-05-07T06:23:02;23.40;;;21.07;;
76157;SDS011;64907;51.574;6.502;2023-05-07T06:25:27;24.15;;;21.73;;
76157;SDS011;64907;51.574;6.502;2023-05-07T06:27:52;23.40;;;21.10;;
76157;SDS011;64907;51.574;6.502;2023-05-07T06:30:17;22.30;;;20.00;;
76157;SDS011;64907;51.574;6.502;2023-05-07T06:32:42;20.90;;;18.73;;
76157;SDS011;64907;51.574;6.502;2023-05-07T06:35:08;21.73;;;19.55;;
76157;SDS011;64907;51.574;6.502;2023-05-07T06:37:33;19.35;;;17.55;;
76157;SDS011;64907;51.574;6.502;2023-05-07T06:39:58;18.88;;;16.63;;
76157;SDS011;64907;51.574;6.502;2023-05-07T06:42:23;18.10;;;16.30;;
76157;SDS011;64907;51.574;6.502;2023-05-07T06:44:48;13.90;;;12.50;;
76157;SDS011;64907;51.574;6.502;2023-05-07T06:47:14;17.27;;;14.48;;
76157;SDS011;64907;51.574;6.502;2023-05-07T06:49:39;13.93;;;12.37;;
76157;SDS011;64907;51.574;6.502;2023-05-07T06:52:05;13.05;;;11.88;;
76157;SDS011;64907;51.574;6.502;2023-05-07T06:54:31;11.75;;;10.65;;
76157;SDS011;64907;51.574;6.502;2023-05-07T06:56:56;14.77;;;12.05;;
76157;SDS011;64907;51.574;6.502;2023-05-07T06:59:21;15.60;;;14.07;;
76157;SDS011;64907;51.574;6.502;2023-05-07T07:01:46;15.20;;;13.73;;
76157;SDS011;64907;51.574;6.502;2023-05-07T07:04:11;14.70;;;13.40;;
76157;SDS011;64907;51.574;6.502;2023-05-07T07:06:37;15.02;;;13.48;;
76157;SDS011;64907;51.574;6.502;2023-05-07T07:09:02;14.32;;;13.02;;
76157;SDS011;64907;51.574;6.502;2023-05-07T07:11:27;17.17;;;13.20;;
76157;SDS011;64907;51.574;6.502;2023-05-07T07:13:52;14.30;;;12.90;;
76157;SDS011;64907;51.574;6.502;2023-05-07T07:16:19;15.05;;;13.52;;
76157;SDS011;64907;51.574;6.502;2023-05-07T07:18:44;18.95;;;13.35;;
76157;SDS011;64907;51.574;6.502;2023-05-07T07:21:09;13.57;;;12.27;;
76157;SDS011;64907;51.574;6.502;2023-05-07T07:23:35;13.52;;;12.43;;
76157;SDS011;64907;51.574;6.502;2023-05-07T07:26:00;12.73;;;11.68;;
76157;SDS011;64907;51.574;6.502;2023-05-07T07:28:26;12.60;;;11.10;;
76157;SDS011;64907;51.574;6.502;2023-05-07T07:30:51;12.10;;;10.97;;
76157;SDS011;64907;51.574;6.502;2023-05-07T07:33:16;11.20;;;10.10;;
76157;SDS011;64907;51.574;6.502;2023-05-07T07:35:41;11.43;;;10.20;;
76157;SDS011;64907;51.574;6.502;2023-05-07T07:38:07;9.80;;;9.00;;
76157;SDS011;64907;51.574;6.502;2023-05-07T07:40:34;9.97;;;9.07;;
76157;SDS011;64907;51.574;6.502;2023-05-07T07:42:59;10.18;;;9.38;;
76157;SDS011;64907;51.574;6.502;2023-05-07T07:45:26;9.05;;;8.32;;
76157;SDS011;64907;51.574;6.502;2023-05-07T07:47:51;9.20;;;8.40;;
76157;SDS011;64907;51.574;6.502;2023-05-07T07:50:17;9.10;;;7.95;;
76157;SDS011;64907;51.574;6.502;2023-05-07T07:52:42;8.60;;;7.87;;
76157;SDS011;64907;51.574;6.502;2023-05-07T07:55:07;9.80;;;7.93;;
76157;SDS011;64907;51.574;6.502;2023-05-07T07:57:33;7.32;;;6.72;;
76157;SDS011;64907;51.574;6.502;2023-05-07T07:59:58;8.70;;;7.43;;
76157;SDS011;64907;51.574;6.502;2023-05-07T08:02:23;7.90;;;7.30;;
76157;SDS011;64907;51.574;6.502;2023-05-07T08:04:49;7.70;;;7.00;;
76157;SDS011;64907;51.574;6.502;2023-05-07T08:07:14;7.80;;;7.00;;
76157;SDS011;64907;51.574;6.502;2023-05-07T08:09:39;11.32;;;7.07;;
76157;SDS011;64907;51.574;6.502;2023-05-07T08:14:34;6.97;;;6.45;;
76157;SDS011;64907;51.574;6.502;2023-05-07T08:17:00;6.45;;;5.95;;
76157;SDS011;64907;51.574;6.502;2023-05-07T08:19:25;7.10;;;6.40;;
76157;SDS011;64907;51.574;6.502;2023-05-07T08:21:51;7.10;;;6.40;;
76157;SDS011;64907;51.574;6.502;2023-05-07T08:24:16;8.13;;;5.97;;
76157;SDS011;64907;51.574;6.502;2023-05-07T08:26:43;7.10;;;6.43;;
76157;SDS011;64907;51.574;6.502;2023-05-07T08:29:08;6.47;;;5.82;;
76157;SDS011;64907;51.574;6.502;2023-05-07T08:31:33;7.68;;;6.10;;
76157;SDS011;64907;51.574;6.502;2023-05-07T08:33:59;6.93;;;6.23;;
76157;SDS011;64907;51.574;6.502;2023-05-07T08:36:24;5.65;;;5.25;;
76157;SDS011;64907;51.574;6.502;2023-05-07T08:38:50;6.53;;;5.93;;
76157;SDS011;64907;51.574;6.502;2023-05-07T08:41:15;6.10;;;5.13;;
76157;SDS011;64907;51.574;6.502;2023-05-07T08:43:41;6.38;;;5.03;;
76157;SDS011;64907;51.574;6.502;2023-05-07T08:46:06;6.07;;;5.47;;
76157;SDS011;64907;51.574;6.502;2023-05-07T08:48:33;5.32;;;4.90;;
76157;SDS011;64907;51.574;6.502;2023-05-07T08:50:59;6.00;;;5.45;;
76157;SDS011;64907;51.574;6.502;2023-05-07T08:53:24;5.53;;;5.07;;
76157;SDS011;64907;51.574;6.502;2023-05-07T08:55:49;6.03;;;5.10;;
76157;SDS011;64907;51.574;6.502;2023-05-07T08:58:15;6.45;;;5.60;;
76157;SDS011;64907;51.574;6.502;2023-05-07T09:00:40;6.10;;;5.68;;
76157;SDS011;64907;51.574;6.502;2023-05-07T09:03:06;6.72;;;5.43;;
76157;SDS011;64907;51.574;6.502;2023-05-07T09:05:31;8.90;;;5.50;;
76157;SDS011;64907;51.574;6.502;2023-05-07T09:08:01;6.23;;;5.73;;
76157;SDS011;64907;51.574;6.502;2023-05-07T09:10:26;6.13;;;5.35;;
76157;SDS011;64907;51.574;6.502;2023-05-07T09:12:52;5.90;;;5.22;;
76157;SDS011;64907;51.574;6.502;2023-05-07T09:15:17;5.83;;;5.33;;
76157;SDS011;64907;51.574;6.502;2023-05-07T09:17:43;5.78;;;5.10;;
76157;SDS011;64907;51.574;6.502;2023-05-07T09:20:08;7.45;;;5.72;;
76157;SDS011;64907;51.574;6.502;2023-05-07T09:22:36;6.20;;;5.22;;
76157;SDS011;64907;51.574;6.502;2023-05-07T09:25:05;7.75;;;5.43;;
76157;SDS011;64907;51.574;6.502;2023-05-07T09:27:31;5.50;;;5.10;;
76157;SDS011;64907;51.574;6.502;2023-05-07T09:29:56;9.70;;;5.03;;
76157;SDS011;64907;51.574;6.502;2023-05-07T09:32:24;6.38;;;4.60;;
76157;SDS011;64907;51.574;6.502;2023-05-07T09:34:49;5.43;;;4.13;;
76157;SDS011;64907;51.574;6.502;2023-05-07T09:37:14;5.17;;;4.67;;
76157;SDS011;64907;51.574;6.502;2023-05-07T09:39:44;6.65;;;5.00;;
76157;SDS011;64907;51.574;6.502;2023-05-07T09:42:09;5.38;;;4.68;;
76157;SDS011;64907;51.574;6.502;2023-05-07T09:44:36;6.82;;;5.70;;
76157;SDS011;64907;51.574;6.502;2023-05-07T09:47:02;9.38;;;5.80;;
76157;SDS011;64907;51.574;6.502;2023-05-07T09:49:29;7.20;;;6.10;;
76157;SDS011;64907;51.574;6.502;2023-05-07T09:51:55;11.65;;;5.95;;
76157;SDS011;64907;51.574;6.502;2023-05-07T09:54:22;5.72;;;4.65;;
76157;SDS011;64907;51.574;6.502;2023-05-07T09:56:50;13.07;;;5.70;;
76157;SDS011;64907;51.574;6.502;2023-05-07T09:59:16;6.03;;;5.53;;
76157;SDS011;64907;51.574;6.502;2023-05-07T10:01:42;7.53;;;4.68;;
76157;SDS011;64907;51.574;6.502;2023-05-07T10:04:08;5.88;;;5.00;;
76157;SDS011;64907;51.574;6.502;2023-05-07T10:06:34;5.57;;;5.15;;
76157;SDS011;64907;51.574;6.502;2023-05-07T10:08:59;6.53;;;4.80;;
76157;SDS011;64907;51.574;6.502;2023-05-07T10:11:25;5.10;;;4.65;;
76157;SDS011;64907;51.574;6.502;2023-05-07T10:13:50;5.80;;;4.72;;
76157;SDS011;64907;51.574;6.502;2023-05-07T10:16:17;5.13;;;4.72;;
76157;SDS011;64907;51.574;6.502;2023-05-07T10:18:43;6.43;;;4.68;;
76157;SDS011;64907;51.574;6.502;2023-05-07T10:21:11;6.07;;;4.50;;
76157;SDS011;64907;51.574;6.502;2023-05-07T10:23:36;4.85;;;4.43;;
76157;SDS011;64907;51.574;6.502;2023-05-07T10:26:03;5.75;;;4.63;;
76157;SDS011;64907;51.574;6.502;2023-05-07T10:28:29;5.35;;;4.45;;
76157;SDS011;64907;51.574;6.502;2023-05-07T10:31:02;5.13;;;4.63;;
76157;SDS011;64907;51.574;6.502;2023-05-07T10:33:30;3.95;;;3.65;;
76157;SDS011;64907;51.574;6.502;2023-05-07T10:35:57;4.55;;;4.15;;
76157;SDS011;64907;51.574;6.502;2023-05-07T10:38:24;3.25;;;3.05;;
76157;SDS011;64907;51.574;6.502;2023-05-07T10:40:50;3.65;;;3.35;;
76157;SDS011;64907;51.574;6.502;2023-05-07T10:43:15;4.38;;;4.00;;
76157;SDS011;64907;51.574;6.502;2023-05-07T10:45:41;3.08;;;2.83;;
76157;SDS011;64907;51.574;6.502;2023-05-07T10:50:38;4.18;;;3.78;;
76157;SDS011;64907;51.574;6.502;2023-05-07T10:55:44;3.50;;;3.10;;
76157;SDS011;64907;51.574;6.502;2023-05-07T11:00:47;4.68;;;2.60;;
76157;SDS011;64907;51.574;6.502;2023-05-07T11:03:12;3.50;;;3.20;;
76157;SDS011;64907;51.574;6.502;2023-05-07T11:05:39;3.65;;;3.35;;
76157;SDS011;64907;51.574;6.502;2023-05-07T11:08:05;4.70;;;3.85;;
76157;SDS011;64907;51.574;6.502;2023-05-07T11:10:52;3.97;;;3.58;;
76157;SDS011;64907;51.574;6.502;2023-05-07T11:13:17;5.22;;;3.97;;
76157;SDS011;64907;51.574;6.502;2023-05-07T11:15:47;8.05;;;4.20;;
76157;SDS011;64907;51.574;6.502;2023-05-07T11:18:13;5.20;;;3.70;;
76157;SDS011;64907;51.574;6.502;2023-05-07T11:20:45;4.07;;;3.22;;
76157;SDS011;64907;51.574;6.502;2023-05-07T11:26:02;3.35;;;3.13;;
76157;SDS011;64907;51.574;6.502;2023-05-07T11:28:28;3.55;;;3.25;;
76157;SDS011;64907;51.574;6.502;2023-05-07T11:30:53;3.20;;;3.00;;
76157;SDS011;64907;51.574;6.502;2023-05-07T11:33:18;3.05;;;2.80;;
76157;SDS011;64907;51.574;6.502;2023-05-07T11:35:44;3.33;;;2.95;;
76157;SDS011;64907;51.574;6.502;2023-05-07T11:38:10;4.78;;;2.60;;
76157;SDS011;64907;51.574;6.502;2023-05-07T11:40:47;4.95;;;2.83;;
76157;SDS011;64907;51.574;6.502;2023-05-07T11:43:13;2.70;;;2.50;;
76157;SDS011;64907;51.574;6.502;2023-05-07T11:45:38;3.53;;;2.65;;
76157;SDS011;64907;51.574;6.502;2023-05-07T11:48:03;2.87;;;2.67;;
76157;SDS011;64907;51.574;6.502;2023-05-07T11:50:29;3.20;;;2.70;;
76157;SDS011;64907;51.574;6.502;2023-05-07T11:52:55;2.60;;;2.42;;
76157;SDS011;64907;51.574;6.502;2023-05-07T11:55:20;3.43;;;2.20;;
76157;SDS011;64907;51.574;6.502;2023-05-07T11:57:47;3.13;;;2.60;;
76157;SDS011;64907;51.574;6.502;2023-05-07T12:00:15;2.13;;;1.90;;
76157;SDS011;64907;51.574;6.502;2023-05-07T12:02:40;2.50;;;2.30;;
76157;SDS011;64907;51.574;6.502;2023-05-07T12:05:07;2.85;;;2.35;;
76157;SDS011;64907;51.574;6.502;2023-05-07T12:07:33;2.95;;;2.65;;
76157;SDS011;64907;51.574;6.502;2023-05-07T12:09:58;2.20;;;2.10;;
76157;SDS011;64907;51.574;6.502;2023-05-07T12:12:23;2.97;;;2.47;;
76157;SDS011;64907;51.574;6.502;2023-05-07T12:14:48;2.87;;;2.67;;
76157;SDS011;64907;51.574;6.502;2023-05-07T12:17:14;3.47;;;2.60;;
76157;SDS011;64907;51.574;6.502;2023-05-07T12:19:40;2.33;;;2.20;;
76157;SDS011;64907;51.574;6.502;2023-05-07T12:22:09;2.63;;;2.50;;
76157;SDS011;64907;51.574;6.502;2023-05-07T12:24:47;3.50;;;3.22;;
76157;SDS011;64907;51.574;6.502;2023-05-07T12:27:13;3.42;;;3.13;;
76157;SDS011;64907;51.574;6.502;2023-05-07T12:29:38;5.03;;;2.80;;
76157;SDS011;64907;51.574;6.502;2023-05-07T12:32:06;3.10;;;2.40;;
76157;SDS011;64907;51.574;6.502;2023-05-07T12:34:31;4.00;;;2.78;;
76157;SDS011;64907;51.574;6.502;2023-05-07T12:36:56;3.50;;;2.55;;
76157;SDS011;64907;51.574;6.502;2023-05-07T12:39:22;2.85;;;2.65;;
76157;SDS011;64907;51.574;6.502;2023-05-07T12:41:57;3.13;;;2.72;;
76157;SDS011;64907;51.574;6.502;2023-05-07T12:44:29;3.30;;;3.00;;
76157;SDS011;64907;51.574;6.502;2023-05-07T12:46:54;3.47;;;2.75;;
76157;SDS011;64907;51.574;6.502;2023-05-07T12:49:20;5.35;;;2.80;;
76157;SDS011;64907;51.574;6.502;2023-05-07T12:51:48;4.47;;;2.28;;
76157;SDS011;64907;51.574;6.502;2023-05-07T12:54:24;3.55;;;2.00;;
76157;SDS011;64907;51.574;6.502;2023-05-07T12:56:59;3.15;;;2.58;;
76157;SDS011;64907;51.574;6.502;2023-05-07T12:59:32;2.60;;;2.40;;
76157;SDS011;64907;51.574;6.502;2023-05-07T13:01:57;2.85;;;2.25;;
76157;SDS011;64907;51.574;6.502;2023-05-07T13:04:24;14.93;;;2.80;;
76157;SDS011;64907;51.574;6.502;2023-05-07T13:06:49;8.00;;;2.38;;
76157;SDS011;64907;51.574;6.502;2023-05-07T13:09:14;2.63;;;2.27;;
76157;SDS011;64907;51.574;6.502;2023-05-07T13:11:40;3.25;;;2.53;;
76157;SDS011;64907;51.574;6.502;2023-05-07T13:14:05;2.40;;;2.30;;
76157;SDS011;64907;51.574;6.502;2023-05-07T13:16:30;2.70;;;2.50;;
76157;SDS011;64907;51.574;6.502;2023-05-07T13:18:56;2.70;;;2.50;;
76157;SDS011;64907;51.574;6.502;2023-05-07T13:21:23;3.83;;;3.10;;
76157;SDS011;64907;51.574;6.502;2023-05-07T13:23:48;3.03;;;2.92;;
76157;SDS011;64907;51.574;6.502;2023-05-07T13:26:13;2.63;;;2.43;;
76157;SDS011;64907;51.574;6.502;2023-05-07T13:28:39;2.90;;;2.70;;
76157;SDS011;64907;51.574;6.502;2023-05-07T13:31:04;2.77;;;2.60;;
76157;SDS011;64907;51.574;6.502;2023-05-07T13:33:29;2.50;;;2.30;;
76157;SDS011;64907;51.574;6.502;2023-05-07T13:35:54;4.17;;;2.80;;
76157;SDS011;64907;51.574;6.502;2023-05-07T13:38:21;3.13;;;2.28;;
76157;SDS011;64907;51.574;6.502;2023-05-07T13:40:47;2.87;;;2.73;;
76157;SDS011;64907;51.574;6.502;2023-05-07T13:43:12;2.57;;;2.47;;
76157;SDS011;64907;51.574;6.502;2023-05-07T13:45:37;2.83;;;2.63;;
76157;SDS011;64907;51.574;6.502;2023-05-07T13:48:02;2.50;;;2.40;;
76157;SDS011;64907;51.574;6.502;2023-05-07T13:50:27;3.38;;;3.03;;
76157;SDS011;64907;51.574;6.502;2023-05-07T13:52:54;3.15;;;2.95;;
76157;SDS011;64907;51.574;6.502;2023-05-07T13:55:20;3.00;;;2.90;;
76157;SDS011;64907;51.574;6.502;2023-05-07T13:57:45;4.05;;;3.10;;
76157;SDS011;64907;51.574;6.502;2023-05-07T14:00:11;2.97;;;2.78;;
76157;SDS011;64907;51.574;6.502;2023-05-07T14:02:37;3.03;;;2.83;;
76157;SDS011;64907;51.574;6.502;2023-05-07T14:05:02;2.90;;;2.70;;
76157;SDS011;64907;51.574;6.502;2023-05-07T14:07:27;4.15;;;3.72;;
76157;SDS011;64907;51.574;6.502;2023-05-07T14:09:53;4.00;;;3.70;;
76157;SDS011;64907;51.574;6.502;2023-05-07T14:12:18;3.90;;;3.67;;
76157;SDS011;64907;51.574;6.502;2023-05-07T14:14:43;3.85;;;3.65;;
76157;SDS011;64907;51.574;6.502;2023-05-07T14:17:10;4.25;;;4.03;;
76157;SDS011;64907;51.574;6.502;2023-05-07T14:19:35;4.05;;;3.78;;
76157;SDS011;64907;51.574;6.502;2023-05-07T14:22:01;5.75;;;4.25;;
76157;SDS011;64907;51.574;6.502;2023-05-07T14:24:26;5.35;;;4.20;;
76157;SDS011;64907;51.574;6.502;2023-05-07T14:26:51;4.40;;;4.10;;
76157;SDS011;64907;51.574;6.502;2023-05-07T14:29:17;5.38;;;4.70;;
76157;SDS011;64907;51.574;6.502;2023-05-07T14:31:44;4.95;;;4.55;;
76157;SDS011;64907;51.574;6.502;2023-05-07T14:34:09;5.10;;;4.70;;
76157;SDS011;64907;51.574;6.502;2023-05-07T14:36:35;5.32;;;4.90;;
76157;SDS011;64907;51.574;6.502;2023-05-07T14:39:00;5.40;;;5.00;;